createdAt,value
2023-01-03T00:03:05.040Z,68.97
2023-01-03T00:08:12.437Z,69.11
2023-01-03T00:13:19.375Z,69.29
2023-01-03T00:18:29.217Z,69.69
2023-01-03T00:23:36.143Z,70.61
2023-01-03T00:28:43.078Z,71.18
2023-01-03T00:33:50.259Z,71.87
2023-01-03T00:38:57.239Z,73.10
2023-01-03T00:44:04.524Z,73.98
2023-01-03T00:49:12.360Z,74.55
2023-01-03T00:54:19.298Z,74.78
2023-01-03T00:59:27.099Z,75.26
2023-01-03T01:04:35.507Z,75.66
2023-01-03T01:09:42.749Z,76.44
2023-01-03T01:14:49.661Z,76.73
2023-01-03T01:19:59.194Z,76.75
2023-01-03T01:25:06.979Z,77.34
2023-01-03T01:30:14.341Z,78.02
2023-01-03T01:35:21.348Z,78.16
2023-01-03T01:40:28.837Z,78.80
2023-01-03T01:45:38.294Z,78.96
2023-01-03T01:50:54.259Z,78.89
2023-01-03T01:56:07.454Z,79.82
2023-01-03T02:01:17.839Z,79.83
2023-01-03T02:06:26.004Z,79.89
2023-01-03T02:11:42.032Z,80.24
2023-01-03T02:17:01.653Z,80.12
2023-01-03T02:22:25.306Z,80.28
2023-01-03T02:28:01.997Z,80.90
2023-01-03T02:33:19.951Z,81.45
2023-01-03T02:38:35.671Z,81.08
2023-01-03T02:43:52.391Z,81.04
2023-01-03T02:49:05.465Z,80.93
2023-01-03T02:54:16.793Z,80.96
2023-01-03T02:59:35.250Z,81.69
2023-01-03T03:04:47.313Z,81.44
2023-01-03T03:10:11.892Z,80.93
2023-01-03T03:15:23.322Z,81.44
2023-01-03T03:20:48.161Z,80.96
2023-01-03T03:25:59.393Z,81.06
2023-01-03T03:31:10.497Z,80.98
2023-01-03T03:36:25.569Z,81.08
2023-01-03T03:41:58.662Z,81.20
2023-01-03T03:47:11.539Z,81.08
2023-01-03T03:52:22.322Z,80.84
2023-01-03T03:57:34.044Z,81.00
2023-01-03T04:02:39.868Z,80.74
2023-01-03T04:07:47.125Z,80.83
2023-01-03T04:12:54.649Z,80.79
2023-01-03T04:18:03.254Z,80.55
2023-01-03T04:23:10.239Z,80.64
2023-01-03T04:28:17.554Z,80.88
2023-01-03T04:33:25.084Z,81.17
2023-01-03T04:38:32.084Z,81.23
2023-01-03T04:43:56.715Z,81.60
2023-01-03T04:49:05.165Z,81.59
2023-01-03T04:54:12.173Z,81.60
2023-01-03T04:59:19.124Z,81.50
2023-01-03T05:04:26.176Z,81.84
2023-01-03T05:09:35.775Z,81.81
2023-01-03T05:14:42.777Z,81.87
2023-01-03T05:20:08.050Z,81.70
2023-01-03T05:25:28.843Z,81.41
2023-01-03T05:30:35.855Z,81.88
2023-01-03T05:35:42.800Z,81.53
2023-01-03T05:40:49.761Z,81.67
2023-01-03T05:45:56.749Z,81.62
2023-01-03T05:51:03.760Z,81.53
2023-01-03T05:56:11.182Z,81.49
2023-01-03T06:01:18.962Z,81.22
2023-01-03T06:06:26.010Z,81.30
2023-01-03T06:11:32.962Z,81.22
2023-01-03T06:17:06.061Z,81.21
2023-01-03T06:22:13.259Z,80.93
2023-01-03T06:27:20.309Z,80.85
2023-01-03T06:32:27.446Z,80.62
2023-01-03T06:37:34.368Z,80.56
2023-01-03T06:42:44.288Z,80.39
2023-01-03T06:48:09.000Z,80.28
2023-01-03T06:53:18.295Z,80.29
2023-01-03T06:58:25.330Z,80.26
2023-01-03T07:03:32.724Z,80.29
2023-01-03T07:08:44.230Z,80.03
2023-01-03T07:14:03.514Z,79.69
2023-01-03T07:19:12.852Z,79.18
2023-01-03T07:24:19.968Z,78.87
2023-01-03T07:29:26.935Z,78.95
2023-01-03T07:34:33.938Z,78.83
2023-01-03T07:39:40.884Z,78.51
2023-01-03T07:44:47.840Z,78.63
2023-01-03T07:49:54.869Z,78.62
2023-01-03T07:55:01.900Z,78.59
2023-01-03T08:00:10.912Z,78.62
2023-01-03T08:05:19.457Z,78.48
2023-01-03T08:10:42.857Z,78.53
2023-01-03T08:15:52.981Z,78.58
2023-01-03T08:21:00.131Z,78.57
2023-01-03T08:26:09.518Z,78.56
2023-01-03T08:31:22.830Z,78.78
2023-01-03T08:36:34.387Z,78.85
2023-01-03T08:41:45.050Z,79.02
2023-01-03T08:46:54.585Z,79.03
2023-01-03T08:52:01.606Z,78.68
2023-01-03T08:57:08.535Z,78.53
2023-01-03T09:02:15.628Z,78.45
2023-01-03T09:07:22.811Z,78.40
2023-01-03T09:12:29.813Z,78.34
2023-01-03T09:17:36.944Z,78.08
2023-01-03T09:22:44.222Z,77.97
2023-01-03T09:27:51.258Z,77.82
2023-01-03T09:32:58.104Z,77.64
2023-01-03T09:38:05.049Z,77.42
2023-01-03T09:43:24.684Z,77.58
2023-01-03T09:48:37.295Z,77.24
2023-01-03T09:54:02.392Z,77.18
2023-01-03T09:59:40.750Z,76.96
2023-01-03T10:05:09.743Z,76.70
2023-01-03T10:10:24.045Z,76.75
2023-01-03T10:15:44.938Z,76.29
2023-01-03T10:20:55.385Z,76.33
2023-01-03T10:26:02.873Z,76.11
2023-01-03T10:31:29.164Z,75.80
2023-01-03T10:36:36.133Z,75.67
2023-01-03T10:41:47.124Z,75.84
2023-01-03T10:46:56.391Z,75.69
2023-01-03T10:52:10.785Z,75.19
2023-01-03T10:57:43.684Z,73.99
2023-01-03T11:02:51.673Z,73.61
2023-01-03T11:08:01.047Z,73.04
2023-01-03T11:13:23.980Z,73.20
2023-01-03T11:18:33.666Z,73.26
2023-01-03T11:23:59.018Z,72.80
2023-01-03T11:29:44.344Z,72.06
2023-01-03T11:35:22.972Z,72.99
2023-01-03T11:40:44.435Z,72.83
2023-01-03T11:46:10.378Z,71.94
2023-01-03T11:51:24.308Z,71.03
2023-01-03T11:56:36.038Z,69.76
2023-01-03T12:01:51.879Z,69.92
2023-01-03T12:13:05.370Z,70.42
2023-01-03T12:18:23.424Z,69.39
2023-01-03T12:23:39.241Z,69.66
2023-01-03T12:28:53.635Z,69.59
2023-01-03T12:34:10.314Z,69.42
2023-01-03T12:39:34.408Z,69.64
2023-01-03T12:44:44.688Z,69.82
2023-01-03T12:49:58.417Z,69.22
2023-01-03T12:55:14.873Z,68.68
2023-01-03T13:00:32.485Z,68.75
2023-01-03T13:05:47.725Z,68.28
2023-01-03T13:10:59.067Z,68.37
2023-01-03T13:16:33.407Z,68.54
2023-01-03T13:22:06.213Z,68.18
2023-01-03T13:27:37.625Z,68.67
2023-01-03T13:32:53.481Z,68.96
2023-01-03T13:38:12.830Z,69.09
2023-01-03T13:43:29.942Z,69.31
2023-01-03T13:48:56.684Z,69.80
2023-01-03T13:54:07.357Z,70.08
2023-01-03T13:59:27.166Z,70.26
2023-01-03T14:05:00.793Z,70.72
2023-01-03T14:10:22.715Z,70.73
2023-01-03T14:15:28.535Z,70.94
2023-01-03T14:20:38.613Z,70.99
2023-01-03T14:25:46.599Z,71.79
2023-01-03T14:31:03.546Z,72.29
2023-01-03T14:36:14.778Z,73.41
2023-01-03T14:41:35.251Z,74.16
2023-01-03T14:46:53.272Z,74.70
2023-01-03T14:52:09.847Z,75.28
2023-01-03T14:57:22.471Z,75.54
2023-01-03T15:02:37.240Z,75.55
2023-01-03T15:07:45.084Z,75.56
2023-01-03T15:13:04.566Z,75.69
2023-01-03T15:18:23.124Z,76.01
2023-01-03T15:23:41.645Z,76.44
2023-01-03T15:28:56.383Z,76.52
2023-01-03T15:34:13.197Z,76.61
2023-01-03T15:39:24.011Z,76.74
2023-01-03T15:44:33.544Z,77.04
2023-01-03T15:49:43.806Z,77.25
2023-01-03T15:54:51.224Z,77.15
2023-01-03T16:00:02.477Z,77.30
2023-01-03T16:05:23.679Z,77.61
2023-01-03T16:10:31.558Z,77.83
2023-01-03T16:15:43.830Z,77.88
2023-01-03T16:20:51.697Z,77.98
2023-01-03T16:25:59.423Z,78.28
2023-01-03T16:31:15.314Z,78.34
2023-01-03T16:36:31.806Z,78.34
2023-01-03T16:41:38.799Z,78.64
2023-01-03T16:46:46.489Z,78.92
2023-01-03T16:51:57.528Z,78.94
2023-01-03T16:57:05.180Z,79.02
2023-01-03T17:02:12.723Z,79.18
2023-01-03T17:07:25.148Z,79.27
2023-01-03T17:12:30.582Z,79.50
2023-01-03T17:17:37.561Z,79.58
2023-01-03T17:22:58.749Z,79.88
2023-01-03T17:28:14.028Z,79.69
2023-01-03T17:33:33.618Z,79.67
2023-01-03T17:38:41.293Z,80.00
2023-01-03T17:44:03.361Z,80.09
2023-01-03T17:49:28.224Z,80.08
2023-01-03T17:54:38.116Z,80.33
2023-01-03T17:59:45.303Z,80.46
2023-01-03T18:10:28.397Z,80.94
2023-01-03T18:15:35.439Z,81.03
2023-01-03T18:20:42.723Z,81.14
2023-01-03T18:25:49.970Z,80.97
2023-01-03T18:30:58.156Z,80.99
2023-01-03T18:36:08.158Z,81.04
2023-01-03T18:41:28.489Z,81.25
2023-01-03T18:46:35.748Z,81.53
2023-01-03T18:51:49.283Z,81.73
2023-01-03T18:56:56.500Z,81.56
2023-01-03T19:02:04.034Z,81.45
2023-01-03T19:07:18.701Z,81.52
2023-01-03T19:12:26.407Z,81.38
2023-01-03T19:17:33.618Z,81.67
2023-01-03T19:22:42.118Z,81.88
2023-01-03T19:27:50.262Z,81.93
2023-01-03T19:32:59.253Z,81.91
2023-01-03T19:38:06.252Z,81.93
2023-01-03T19:43:21.862Z,81.96
2023-01-03T19:48:32.450Z,82.22
2023-01-03T19:53:39.639Z,82.47
2023-01-03T19:58:46.777Z,82.48
2023-01-03T20:03:53.868Z,82.53
2023-01-03T20:09:02.725Z,82.61
2023-01-03T20:14:20.233Z,82.76
2023-01-03T20:19:27.896Z,83.02
2023-01-03T20:24:36.458Z,82.69
2023-01-03T20:29:44.192Z,82.95
2023-01-03T20:34:51.533Z,82.87
2023-01-03T20:39:59.479Z,82.68
2023-01-03T20:45:08.662Z,82.54
2023-01-03T20:50:20.077Z,82.65
2023-01-03T20:55:28.232Z,82.61
2023-01-03T21:00:43.385Z,82.79
2023-01-03T21:06:19.499Z,82.74
2023-01-03T21:11:30.726Z,82.68
2023-01-03T21:16:42.232Z,82.93
2023-01-03T21:22:05.224Z,83.05
2023-01-03T21:27:20.457Z,83.02
2023-01-03T21:32:27.591Z,83.01
2023-01-03T21:37:42.093Z,83.03
2023-01-03T21:43:06.684Z,83.18
2023-01-03T21:48:15.379Z,83.25
2023-01-03T21:53:24.567Z,83.29
2023-01-03T21:58:32.688Z,83.51
2023-01-03T22:03:57.981Z,83.78
2023-01-03T22:09:07.362Z,83.62
2023-01-03T22:14:22.076Z,83.93
2023-01-03T22:19:29.083Z,83.49
2023-01-03T22:24:39.559Z,83.34
2023-01-03T22:29:46.505Z,83.31
2023-01-03T22:34:53.433Z,83.26
2023-01-03T22:40:00.399Z,83.43
2023-01-03T22:45:10.310Z,83.29
2023-01-03T22:50:17.333Z,83.15
2023-01-03T22:55:28.329Z,83.19
2023-01-03T23:00:39.591Z,83.25
2023-01-03T23:05:46.563Z,83.25
2023-01-03T23:11:13.448Z,83.31
2023-01-03T23:16:20.505Z,83.41
2023-01-03T23:21:27.580Z,83.38
2023-01-03T23:26:34.597Z,83.48
2023-01-03T23:31:41.444Z,83.69
2023-01-03T23:36:48.406Z,83.58
2023-01-03T23:41:55.362Z,83.68
2023-01-03T23:47:07.646Z,83.82
2023-01-03T23:52:18.284Z,83.89
2023-01-03T23:57:25.189Z,83.99
